createdAt,value
2023-05-20T00:01:43.782Z,11.50
2023-05-20T00:04:11.118Z,11.40
2023-05-20T00:06:38.373Z,11.40
2023-05-20T00:09:05.659Z,11.40
2023-05-20T00:11:32.750Z,11.30
2023-05-20T00:13:59.861Z,11.30
2023-05-20T00:16:26.953Z,11.30
2023-05-20T00:18:54.280Z,11.30
2023-05-20T00:21:21.435Z,11.20
2023-05-20T00:23:48.532Z,11.10
2023-05-20T00:26:15.911Z,11.20
2023-05-20T00:28:42.956Z,11.10
2023-05-20T00:31:10.089Z,11.10
2023-05-20T00:33:37.226Z,11.10
2023-05-20T00:36:04.781Z,11.00
2023-05-20T00:38:31.940Z,11.10
2023-05-20T00:40:59.051Z,11.00
2023-05-20T00:43:26.761Z,11.10
2023-05-20T00:45:54.897Z,11.10
2023-05-20T00:48:22.378Z,11.10
2023-05-20T00:50:50.856Z,11.20
2023-05-20T00:53:18.921Z,11.10
2023-05-20T00:55:46.125Z,11.10
2023-05-20T00:58:13.403Z,11.10
2023-05-20T01:00:41.359Z,11.00
2023-05-20T01:03:08.866Z,11.00
2023-05-20T01:05:36.378Z,11.00
2023-05-20T01:08:04.877Z,10.90
2023-05-20T01:10:34.286Z,11.00
2023-05-20T01:13:05.696Z,10.90
2023-05-20T01:15:33.376Z,10.90
2023-05-20T01:18:06.171Z,10.90
2023-05-20T01:20:34.163Z,10.90
2023-05-20T01:23:01.769Z,10.90
2023-05-20T01:25:29.208Z,10.90
2023-05-20T01:27:58.066Z,10.90
2023-05-20T01:30:33.926Z,10.90
2023-05-20T01:33:05.694Z,10.90
2023-05-20T01:35:33.409Z,10.90
2023-05-20T01:38:01.611Z,10.90
2023-05-20T01:40:29.415Z,10.90
2023-05-20T01:42:58.155Z,10.80
2023-05-20T01:45:26.173Z,10.90
2023-05-20T01:47:53.479Z,10.90
2023-05-20T01:50:20.862Z,10.90
2023-05-20T01:52:48.039Z,10.90
2023-05-20T01:55:15.188Z,10.90
2023-05-20T01:57:42.236Z,10.80
2023-05-20T02:00:10.062Z,10.80
2023-05-20T02:02:37.289Z,10.80
2023-05-20T02:05:04.726Z,10.80
2023-05-20T02:07:31.841Z,10.80
2023-05-20T02:09:58.965Z,10.80
2023-05-20T02:12:26.340Z,10.80
2023-05-20T02:14:53.465Z,10.80
2023-05-20T02:17:20.702Z,10.70
2023-05-20T02:19:47.859Z,10.70
2023-05-20T02:22:15.250Z,10.70
2023-05-20T02:24:43.691Z,10.60
2023-05-20T02:27:10.976Z,10.60
2023-05-20T02:29:38.071Z,10.50
2023-05-20T02:32:05.530Z,10.50
2023-05-20T02:34:33.470Z,10.50
2023-05-20T02:37:01.587Z,10.50
2023-05-20T02:39:28.901Z,10.40
2023-05-20T02:41:56.544Z,10.50
2023-05-20T02:44:23.735Z,10.50
2023-05-20T02:46:51.074Z,10.50
2023-05-20T02:49:18.144Z,10.50
2023-05-20T02:51:45.302Z,10.40
2023-05-20T02:54:12.629Z,10.40
2023-05-20T02:56:39.815Z,10.40
2023-05-20T02:59:07.597Z,10.30
2023-05-20T03:01:36.187Z,10.20
2023-05-20T03:04:03.884Z,10.20
2023-05-20T03:06:32.208Z,10.20
2023-05-20T03:08:59.707Z,10.20
2023-05-20T03:11:27.020Z,10.20
2023-05-20T03:13:54.309Z,10.20
2023-05-20T03:16:21.431Z,10.10
2023-05-20T03:18:49.808Z,10.10
2023-05-20T03:21:17.010Z,10.10
2023-05-20T03:23:44.087Z,10.10
2023-05-20T03:26:11.650Z,10.10
2023-05-20T03:28:38.977Z,10.00
2023-05-20T03:31:06.695Z,10.00
2023-05-20T03:33:35.710Z,10.00
2023-05-20T03:36:02.855Z,10.00
2023-05-20T03:38:30.310Z,10.00
2023-05-20T03:40:58.831Z,10.00
2023-05-20T03:43:27.284Z,9.90
2023-05-20T03:45:54.457Z,9.90
2023-05-20T03:48:21.600Z,9.90
2023-05-20T03:50:49.470Z,9.90
2023-05-20T03:53:17.623Z,9.90
2023-05-20T03:55:44.723Z,9.90
2023-05-20T03:58:13.667Z,9.90
2023-05-20T04:00:41.144Z,9.80
2023-05-20T04:03:08.984Z,9.80
2023-05-20T04:05:37.143Z,9.90
2023-05-20T04:08:05.234Z,10.00
2023-05-20T04:10:33.029Z,10.00
2023-05-20T04:13:00.190Z,10.00
2023-05-20T04:15:29.960Z,10.00
2023-05-20T04:17:57.241Z,10.00
2023-05-20T04:20:24.705Z,10.00
2023-05-20T04:22:52.558Z,10.10
2023-05-20T04:25:20.185Z,10.10
2023-05-20T04:27:48.221Z,10.10
2023-05-20T04:30:17.890Z,10.10
2023-05-20T04:32:45.087Z,10.10
2023-05-20T04:35:14.107Z,10.20
2023-05-20T04:37:42.622Z,10.20
2023-05-20T04:40:10.937Z,10.30
2023-05-20T04:42:38.888Z,10.40
2023-05-20T04:45:08.914Z,10.40
2023-05-20T04:47:39.238Z,10.40
2023-05-20T04:50:11.629Z,10.40
2023-05-20T04:52:39.834Z,10.40
2023-05-20T04:55:10.448Z,10.40
2023-05-20T04:57:42.576Z,10.40
2023-05-20T05:00:12.706Z,10.50
2023-05-20T05:02:40.195Z,10.50
2023-05-20T05:05:08.125Z,10.60
2023-05-20T05:07:35.451Z,10.60
2023-05-20T05:10:02.679Z,10.60
2023-05-20T05:12:29.762Z,10.70
2023-05-20T05:14:58.945Z,10.80
2023-05-20T05:17:26.172Z,10.90
2023-05-20T05:19:53.318Z,11.00
2023-05-20T05:22:20.823Z,11.00
2023-05-20T05:24:47.948Z,11.10
2023-05-20T05:27:15.112Z,11.20
2023-05-20T05:29:42.217Z,11.30
2023-05-20T05:32:09.371Z,11.30
2023-05-20T05:34:36.530Z,11.40
2023-05-20T05:37:03.672Z,11.50
2023-05-20T05:39:30.885Z,11.50
2023-05-20T05:41:57.982Z,11.50
2023-05-20T05:44:25.082Z,11.70
2023-05-20T05:46:52.241Z,11.70
2023-05-20T05:49:19.392Z,11.70
2023-05-20T05:51:46.519Z,11.80
2023-05-20T05:54:13.631Z,11.90
2023-05-20T05:56:40.729Z,12.00
2023-05-20T05:59:07.891Z,12.10
2023-05-20T06:01:35.072Z,12.20
2023-05-20T06:04:02.282Z,12.30
2023-05-20T06:06:29.538Z,12.40
2023-05-20T06:08:56.712Z,12.50
2023-05-20T06:11:24.312Z,12.70
2023-05-20T06:13:51.608Z,12.80
2023-05-20T06:16:19.093Z,12.80
2023-05-20T06:18:53.411Z,12.70
2023-05-20T06:21:20.553Z,12.60
2023-05-20T06:23:47.642Z,12.60
2023-05-20T06:26:14.868Z,12.60
2023-05-20T06:28:42.058Z,12.80
2023-05-20T06:31:09.318Z,12.90
2023-05-20T06:33:36.943Z,12.90
2023-05-20T06:36:04.267Z,13.00
2023-05-20T06:38:33.751Z,13.00
2023-05-20T06:41:01.382Z,13.00
2023-05-20T06:43:28.499Z,13.10
2023-05-20T06:45:55.817Z,13.20
2023-05-20T06:48:23.018Z,13.30
2023-05-20T06:50:50.192Z,13.40
2023-05-20T06:53:17.403Z,13.50
2023-05-20T06:55:44.776Z,13.60
2023-05-20T06:58:11.938Z,13.70
2023-05-20T07:00:39.471Z,14.00
2023-05-20T07:03:06.847Z,14.10
2023-05-20T07:05:34.115Z,14.30
2023-05-20T07:08:03.007Z,14.40
2023-05-20T07:10:30.372Z,14.30
2023-05-20T07:12:57.620Z,14.30
2023-05-20T07:15:24.668Z,14.20
2023-05-20T07:17:52.574Z,14.30
2023-05-20T07:20:19.723Z,14.40
2023-05-20T07:22:50.884Z,14.50
2023-05-20T07:25:17.996Z,14.70
2023-05-20T07:27:45.188Z,14.80
2023-05-20T07:30:12.335Z,14.90
2023-05-20T07:32:39.942Z,15.10
2023-05-20T07:35:07.550Z,15.20
2023-05-20T07:37:34.672Z,15.20
2023-05-20T07:40:02.115Z,15.30
2023-05-20T07:42:29.605Z,15.20
2023-05-20T07:44:56.724Z,15.20
2023-05-20T07:47:23.896Z,15.20
2023-05-20T07:49:50.939Z,15.20
2023-05-20T07:52:18.197Z,15.30
2023-05-20T07:54:45.417Z,15.40
2023-05-20T07:57:13.079Z,15.40
2023-05-20T07:59:40.187Z,15.40
2023-05-20T08:02:07.385Z,15.50
2023-05-20T08:04:35.422Z,15.60
2023-05-20T08:07:02.601Z,15.60
2023-05-20T08:09:31.731Z,15.50
2023-05-20T08:11:58.865Z,15.50
2023-05-20T08:14:25.950Z,15.50
2023-05-20T08:16:54.942Z,15.70
2023-05-20T08:19:22.322Z,15.90
2023-05-20T08:21:49.605Z,16.00
2023-05-20T08:24:17.133Z,16.00
2023-05-20T08:26:44.466Z,16.00
2023-05-20T08:29:12.096Z,16.10
2023-05-20T08:31:39.262Z,16.20
2023-05-20T08:34:07.051Z,16.30
2023-05-20T08:36:34.977Z,16.30
2023-05-20T08:39:02.031Z,16.50
2023-05-20T08:41:30.146Z,16.50
2023-05-20T08:43:58.789Z,16.60
2023-05-20T08:46:26.122Z,16.70
2023-05-20T08:48:53.246Z,16.60
2023-05-20T08:51:24.064Z,16.50
2023-05-20T08:53:51.935Z,16.50
2023-05-20T08:56:19.862Z,16.70
2023-05-20T08:58:47.218Z,16.50
2023-05-20T09:01:14.416Z,16.70
2023-05-20T09:03:41.558Z,16.80
2023-05-20T09:06:09.783Z,17.10
2023-05-20T09:08:38.063Z,17.20
2023-05-20T09:11:05.364Z,17.30
2023-05-20T09:13:35.118Z,17.50
2023-05-20T09:16:03.288Z,17.50
2023-05-20T09:18:31.136Z,17.60
2023-05-20T09:20:58.473Z,17.70
2023-05-20T09:23:26.118Z,17.80
2023-05-20T09:25:53.670Z,17.90
2023-05-20T09:28:24.307Z,18.00
2023-05-20T09:30:54.486Z,18.10
2023-05-20T09:33:22.126Z,17.90
2023-05-20T09:35:50.097Z,17.80
2023-05-20T09:38:18.077Z,17.90
2023-05-20T09:40:46.753Z,17.80
2023-05-20T09:43:14.022Z,17.60
2023-05-20T09:45:41.971Z,17.40
2023-05-20T09:48:12.007Z,17.30
2023-05-20T09:50:40.239Z,17.50
2023-05-20T09:53:09.099Z,17.40
2023-05-20T09:55:37.346Z,17.50
2023-05-20T09:58:04.714Z,17.30
2023-05-20T10:00:32.235Z,17.30
2023-05-20T10:03:00.528Z,17.30
2023-05-20T10:05:30.339Z,17.40
2023-05-20T10:08:15.929Z,17.30
2023-05-20T10:11:12.856Z,17.20
2023-05-20T10:13:57.823Z,17.20
2023-05-20T10:16:25.083Z,17.40
2023-05-20T10:19:28.765Z,17.50
2023-05-20T10:22:02.894Z,17.50
2023-05-20T10:24:34.714Z,17.50
2023-05-20T10:27:04.446Z,17.80
2023-05-20T10:29:46.163Z,17.80
2023-05-20T10:32:29.792Z,17.90
2023-05-20T10:35:05.509Z,17.70
2023-05-20T10:37:42.049Z,17.80
2023-05-20T10:40:14.445Z,17.80
2023-05-20T10:42:42.587Z,18.00
2023-05-20T10:45:10.805Z,17.80
2023-05-20T10:47:43.292Z,17.90
2023-05-20T10:50:27.964Z,17.90
2023-05-20T10:52:56.521Z,17.80
2023-05-20T10:55:23.689Z,17.70
2023-05-20T10:57:52.151Z,17.80
2023-05-20T11:00:19.290Z,17.90
2023-05-20T11:02:47.663Z,18.20
2023-05-20T11:05:17.698Z,18.20
2023-05-20T11:07:44.879Z,18.20
2023-05-20T11:10:12.037Z,18.40
2023-05-20T11:12:40.262Z,18.50
2023-05-20T11:15:08.689Z,18.60
2023-05-20T11:17:35.785Z,18.30
2023-05-20T11:20:02.973Z,18.20
2023-05-20T11:22:30.186Z,18.30
2023-05-20T11:24:57.312Z,18.20
2023-05-20T11:27:24.339Z,18.10
2023-05-20T11:29:51.991Z,18.00
2023-05-20T11:32:21.599Z,17.90
2023-05-20T11:34:52.677Z,17.80
2023-05-20T11:37:20.533Z,17.70
2023-05-20T11:39:47.640Z,17.50
2023-05-20T11:42:16.844Z,17.20
2023-05-20T11:44:45.466Z,17.10
2023-05-20T11:47:12.685Z,16.80
2023-05-20T11:49:40.953Z,16.80
2023-05-20T11:52:11.248Z,16.90
2023-05-20T11:54:38.735Z,17.00
2023-05-20T11:57:07.223Z,17.10
2023-05-20T11:59:34.834Z,17.30
2023-05-20T12:02:01.932Z,17.40
2023-05-20T12:04:29.101Z,17.40
2023-05-20T12:06:56.191Z,17.30
2023-05-20T12:09:23.787Z,17.20
2023-05-20T12:11:51.086Z,17.20
2023-05-20T12:14:18.230Z,17.30
2023-05-20T12:16:45.419Z,17.20
2023-05-20T12:19:12.623Z,17.40
2023-05-20T12:21:39.795Z,17.60
2023-05-20T12:24:08.722Z,18.00
2023-05-20T12:26:36.153Z,18.30
2023-05-20T12:29:03.432Z,18.50
2023-05-20T12:31:32.415Z,18.60
2023-05-20T12:34:01.643Z,18.30
2023-05-20T12:36:30.061Z,18.30
2023-05-20T12:38:57.186Z,18.20
2023-05-20T12:41:24.443Z,18.30
2023-05-20T12:43:51.522Z,18.30
2023-05-20T12:46:19.143Z,18.10
2023-05-20T12:48:46.412Z,18.00
2023-05-20T12:51:13.537Z,18.00
2023-05-20T12:53:40.711Z,17.90
2023-05-20T12:56:08.111Z,17.90
2023-05-20T12:58:35.235Z,18.00
2023-05-20T13:01:02.363Z,17.80
2023-05-20T13:03:29.496Z,17.90
2023-05-20T13:05:56.671Z,17.90
2023-05-20T13:08:23.732Z,18.10
2023-05-20T13:10:51.084Z,18.10
2023-05-20T13:13:21.778Z,18.00
2023-05-20T13:15:52.016Z,17.90
2023-05-20T13:18:19.655Z,18.00
2023-05-20T13:20:47.124Z,18.20
2023-05-20T13:23:14.208Z,18.60
2023-05-20T13:25:41.408Z,18.70
2023-05-20T13:28:08.494Z,18.60
2023-05-20T13:30:35.786Z,18.40
2023-05-20T13:33:03.164Z,18.10
2023-05-20T13:35:30.348Z,17.90
2023-05-20T13:37:57.561Z,17.80
2023-05-20T13:40:25.093Z,17.80
2023-05-20T13:42:52.216Z,17.80
2023-05-20T13:45:19.388Z,17.70
2023-05-20T13:47:46.625Z,17.80
2023-05-20T13:50:13.949Z,17.60
2023-05-20T13:52:41.106Z,17.60
2023-05-20T13:55:08.802Z,17.80
2023-05-20T13:57:35.892Z,18.10
2023-05-20T14:00:03.205Z,18.30
2023-05-20T14:02:31.816Z,18.30
2023-05-20T14:04:59.003Z,18.50
2023-05-20T14:07:26.035Z,18.50
2023-05-20T14:09:53.199Z,18.40
2023-05-20T14:12:20.407Z,18.40
2023-05-20T14:14:47.547Z,18.20
2023-05-20T14:17:14.618Z,18.40
2023-05-20T14:19:42.165Z,18.50
2023-05-20T14:22:09.277Z,18.30
2023-05-20T14:24:36.412Z,18.30
2023-05-20T14:27:03.651Z,18.20
2023-05-20T14:29:30.814Z,18.20
2023-05-20T14:31:57.970Z,18.20
2023-05-20T14:34:26.417Z,18.10
2023-05-20T14:36:53.462Z,18.20
2023-05-20T14:39:20.597Z,18.30
2023-05-20T14:41:47.742Z,18.40
2023-05-20T14:44:14.837Z,18.30
2023-05-20T14:46:42.458Z,19.30
2023-05-20T14:49:09.728Z,19.30
2023-05-20T14:51:36.866Z,19.60
2023-05-20T14:54:03.971Z,19.80
2023-05-20T14:56:31.545Z,19.90
2023-05-20T14:58:58.588Z,20.20
2023-05-20T15:01:26.582Z,20.20
2023-05-20T15:03:53.713Z,20.10
2023-05-20T15:06:21.007Z,19.50
2023-05-20T15:08:48.096Z,19.30
2023-05-20T15:11:15.296Z,19.20
2023-05-20T15:13:42.661Z,19.10
2023-05-20T15:16:09.818Z,18.70
2023-05-20T15:18:36.975Z,18.40
2023-05-20T15:21:04.602Z,18.40
2023-05-20T15:23:31.796Z,18.40
2023-05-20T15:25:58.876Z,18.20
2023-05-20T15:28:26.009Z,18.10
2023-05-20T15:30:56.720Z,18.20
2023-05-20T15:33:23.966Z,18.40
2023-05-20T15:35:51.356Z,18.30
2023-05-20T15:38:18.557Z,18.30
2023-05-20T15:40:45.734Z,18.30
2023-05-20T15:43:12.892Z,18.20
2023-05-20T15:45:40.086Z,18.30
2023-05-20T15:48:08.446Z,18.70
2023-05-20T15:50:36.897Z,18.80
2023-05-20T15:53:07.226Z,19.00
2023-05-20T15:55:35.007Z,19.00
2023-05-20T15:58:02.565Z,18.70
2023-05-20T16:00:30.264Z,18.30
2023-05-20T16:02:57.479Z,18.20
2023-05-20T16:05:28.005Z,18.10
2023-05-20T16:07:55.629Z,18.30
2023-05-20T16:10:25.280Z,18.40
2023-05-20T16:12:53.211Z,18.60
2023-05-20T16:15:20.309Z,18.70
2023-05-20T16:17:47.422Z,18.50
2023-05-20T16:20:14.694Z,18.50
2023-05-20T16:22:41.724Z,18.10
2023-05-20T16:25:11.140Z,17.80
2023-05-20T16:27:38.179Z,17.60
2023-05-20T16:30:07.958Z,17.60
2023-05-20T16:32:35.126Z,17.50
2023-05-20T16:35:02.513Z,17.40
2023-05-20T16:37:29.936Z,17.40
2023-05-20T16:39:56.987Z,17.50
2023-05-20T16:42:24.093Z,17.70
2023-05-20T16:44:51.921Z,17.80
2023-05-20T16:47:19.153Z,17.80
2023-05-20T16:49:46.278Z,17.80
2023-05-20T16:52:13.403Z,17.70
2023-05-20T16:54:40.769Z,17.80
2023-05-20T16:57:08.371Z,18.20
2023-05-20T16:59:35.765Z,18.50
2023-05-20T17:02:02.893Z,18.20
2023-05-20T17:04:30.179Z,18.20
2023-05-20T17:06:57.455Z,18.20
2023-05-20T17:09:24.527Z,18.10
2023-05-20T17:11:53.085Z,18.20
2023-05-20T17:14:20.297Z,18.10
2023-05-20T17:16:47.532Z,18.10
2023-05-20T17:19:14.857Z,18.00
2023-05-20T17:21:42.191Z,18.10
2023-05-20T17:24:09.299Z,18.20
2023-05-20T17:26:36.407Z,18.20
2023-05-20T17:29:03.756Z,18.50
2023-05-20T17:31:31.050Z,18.40
2023-05-20T17:33:58.225Z,18.10
2023-05-20T17:36:25.703Z,17.90
2023-05-20T17:38:53.002Z,17.80
2023-05-20T17:41:20.165Z,17.50
2023-05-20T17:43:47.419Z,17.50
2023-05-20T17:46:14.691Z,17.50
2023-05-20T17:48:42.028Z,17.30
2023-05-20T17:51:09.208Z,17.10
2023-05-20T17:53:36.335Z,17.20
2023-05-20T17:56:03.608Z,17.30
2023-05-20T17:58:31.624Z,17.30
2023-05-20T18:00:58.683Z,17.20
2023-05-20T18:03:25.912Z,17.10
2023-05-20T18:05:55.720Z,17.00
2023-05-20T18:08:23.579Z,17.10
2023-05-20T18:10:50.834Z,17.10
2023-05-20T18:13:18.417Z,17.10
2023-05-20T18:15:45.847Z,17.00
2023-05-20T18:18:12.954Z,16.90
2023-05-20T18:20:40.120Z,16.80
2023-05-20T18:23:07.224Z,16.70
2023-05-20T18:25:34.365Z,16.70
2023-05-20T18:28:01.811Z,16.60
2023-05-20T18:30:29.085Z,16.50
2023-05-20T18:32:57.279Z,16.60
2023-05-20T18:35:24.428Z,16.50
2023-05-20T18:37:51.841Z,16.40
2023-05-20T18:40:20.977Z,16.40
2023-05-20T18:42:48.113Z,16.90
2023-05-20T18:45:15.319Z,17.60
2023-05-20T18:47:42.430Z,17.90
2023-05-20T18:50:10.111Z,17.90
2023-05-20T18:52:37.201Z,17.50
2023-05-20T18:55:04.479Z,16.90
2023-05-20T18:57:31.691Z,16.70
2023-05-20T18:59:58.775Z,16.50
2023-05-20T19:02:26.093Z,16.30
2023-05-20T19:04:53.415Z,16.00
2023-05-20T19:07:20.687Z,15.80
2023-05-20T19:09:47.870Z,15.50
2023-05-20T19:12:15.071Z,15.40
2023-05-20T19:14:42.124Z,15.20
2023-05-20T19:17:09.850Z,15.10
2023-05-20T19:19:36.933Z,15.00
2023-05-20T19:22:04.073Z,14.80
2023-05-20T19:24:32.076Z,14.70
2023-05-20T19:26:59.935Z,14.60
2023-05-20T19:29:27.110Z,14.50
2023-05-20T19:31:55.884Z,14.40
2023-05-20T19:34:23.740Z,14.30
2023-05-20T19:36:51.296Z,14.20
2023-05-20T19:39:18.683Z,14.20
2023-05-20T19:41:45.816Z,14.20
2023-05-20T19:44:14.224Z,14.10
2023-05-20T19:46:42.138Z,14.00
2023-05-20T19:49:09.398Z,14.00
2023-05-20T19:51:38.252Z,13.90
2023-05-20T19:54:05.386Z,13.90
2023-05-20T19:56:32.475Z,13.90
2023-05-20T19:59:01.953Z,13.80
2023-05-20T20:01:29.151Z,13.70
2023-05-20T20:03:56.583Z,13.70
2023-05-20T20:06:23.747Z,13.70
2023-05-20T20:08:50.990Z,13.60
2023-05-20T20:11:18.233Z,13.60
2023-05-20T20:13:46.067Z,13.60
2023-05-20T20:16:13.286Z,13.50
2023-05-20T20:18:40.609Z,13.50
2023-05-20T20:21:09.671Z,13.50
2023-05-20T20:23:38.519Z,13.50
2023-05-20T20:26:06.757Z,13.50
2023-05-20T20:28:34.004Z,13.40
2023-05-20T20:31:01.284Z,13.40
2023-05-20T20:33:28.414Z,13.40
2023-05-20T20:35:57.079Z,13.30
2023-05-20T20:38:29.175Z,13.40
2023-05-20T20:40:59.526Z,13.30
2023-05-20T20:43:29.006Z,13.30
2023-05-20T20:45:56.914Z,13.30
2023-05-20T20:48:27.378Z,13.30
2023-05-20T20:50:54.815Z,13.20
2023-05-20T20:53:22.081Z,13.20
2023-05-20T20:55:51.569Z,13.20
2023-05-20T20:58:19.132Z,13.20
2023-05-20T21:00:48.851Z,13.10
2023-05-20T21:03:21.675Z,13.10
2023-05-20T21:05:52.352Z,13.10
2023-05-20T21:08:22.255Z,13.10
2023-05-20T21:10:49.421Z,13.00
2023-05-20T21:13:16.512Z,13.00
2023-05-20T21:15:46.687Z,13.00
2023-05-20T21:18:16.705Z,13.00
2023-05-20T21:20:43.974Z,13.00
2023-05-20T21:23:11.133Z,13.00
2023-05-20T21:25:38.272Z,13.00
2023-05-20T21:28:06.374Z,13.00
2023-05-20T21:30:33.535Z,13.00
2023-05-20T21:33:00.760Z,12.90
2023-05-20T21:35:27.864Z,12.90
2023-05-20T21:37:55.028Z,12.90
2023-05-20T21:40:22.341Z,12.90
2023-05-20T21:42:49.694Z,12.80
2023-05-20T21:45:20.203Z,12.80
2023-05-20T21:47:47.406Z,12.80
2023-05-20T21:50:14.781Z,12.80
2023-05-20T21:52:41.929Z,12.80
2023-05-20T21:55:10.359Z,12.80
2023-05-20T21:57:37.809Z,12.80
2023-05-20T22:00:10.454Z,12.80
2023-05-20T22:02:37.939Z,12.70
2023-05-20T22:05:05.492Z,12.70
2023-05-20T22:07:33.296Z,12.70
2023-05-20T22:10:00.917Z,12.70
2023-05-20T22:12:27.961Z,12.70
2023-05-20T22:14:55.083Z,12.70
2023-05-20T22:17:24.049Z,12.70
2023-05-20T22:19:51.956Z,12.80
2023-05-20T22:22:19.053Z,12.80
2023-05-20T22:24:46.173Z,12.80
2023-05-20T22:27:13.326Z,12.80
2023-05-20T22:29:40.687Z,12.70
2023-05-20T22:32:07.890Z,12.70
2023-05-20T22:34:35.048Z,12.70
2023-05-20T22:37:03.094Z,12.70
2023-05-20T22:39:30.240Z,12.60
2023-05-20T22:41:57.438Z,12.60
2023-05-20T22:44:24.609Z,12.60
2023-05-20T22:46:51.728Z,12.60
2023-05-20T22:49:19.119Z,12.60
2023-05-20T22:51:46.269Z,12.60
2023-05-20T22:54:13.495Z,12.50
2023-05-20T22:56:40.574Z,12.50
2023-05-20T22:59:07.774Z,12.50
2023-05-20T23:01:34.959Z,12.50
2023-05-20T23:04:02.312Z,12.50
2023-05-20T23:06:33.826Z,12.50
2023-05-20T23:09:02.137Z,12.50
2023-05-20T23:11:29.258Z,12.50
2023-05-20T23:13:56.381Z,12.50
2023-05-20T23:16:26.453Z,12.60
2023-05-20T23:18:53.867Z,12.50
2023-05-20T23:21:21.017Z,12.50
2023-05-20T23:23:48.251Z,12.50
2023-05-20T23:26:15.546Z,12.50
2023-05-20T23:28:42.872Z,12.50
2023-05-20T23:31:10.329Z,12.40
2023-05-20T23:33:37.521Z,12.40
2023-05-20T23:36:05.055Z,12.40
2023-05-20T23:38:32.289Z,12.40
2023-05-20T23:40:59.466Z,12.40
2023-05-20T23:43:26.608Z,12.30
2023-05-20T23:45:54.041Z,12.30
2023-05-20T23:48:21.193Z,12.30
2023-05-20T23:50:48.349Z,12.30
2023-05-20T23:53:16.033Z,12.30
2023-05-20T23:55:45.336Z,12.30
2023-05-20T23:58:12.524Z,12.30
